createdAt,value
2023-01-17T00:00:18.278Z,2.28
2023-01-17T00:03:21.724Z,1.83
2023-01-17T00:06:26.682Z,2.10
2023-01-17T00:09:30.841Z,4.35
2023-01-17T00:12:35.744Z,2.72
2023-01-17T00:15:39.038Z,2.45
2023-01-17T00:18:42.428Z,1.90
2023-01-17T00:21:44.229Z,4.20
2023-01-17T00:24:46.221Z,2.80
2023-01-17T00:27:51.275Z,2.50
2023-01-17T00:30:53.646Z,1.73
2023-01-17T00:33:59.164Z,2.65
2023-01-17T00:37:03.514Z,2.90
2023-01-17T00:40:09.711Z,2.55
2023-01-17T00:43:14.284Z,4.00
2023-01-17T00:46:18.450Z,7.93
2023-01-17T00:49:22.113Z,4.78
2023-01-17T00:52:24.136Z,4.18
2023-01-17T00:55:28.487Z,6.13
2023-01-17T00:58:30.971Z,4.30
2023-01-17T01:01:34.220Z,2.58
2023-01-17T01:04:39.731Z,3.60
2023-01-17T01:07:42.318Z,3.28
2023-01-17T01:10:45.574Z,2.20
2023-01-17T01:13:50.168Z,3.03
2023-01-17T01:16:52.297Z,0.70
2023-01-17T01:19:56.000Z,1.23
2023-01-17T01:23:00.343Z,1.20
2023-01-17T01:26:03.309Z,6.93
2023-01-17T01:29:05.192Z,1.10
2023-01-17T01:32:07.442Z,2.53
2023-01-17T01:35:13.285Z,1.17
2023-01-17T01:38:16.072Z,1.80
2023-01-17T01:41:18.126Z,3.15
2023-01-17T01:44:43.071Z,2.22
2023-01-17T01:47:49.415Z,1.98
2023-01-17T01:50:55.814Z,3.00
2023-01-17T01:54:02.061Z,1.77
2023-01-17T01:57:07.550Z,2.35
2023-01-17T02:00:17.208Z,3.33
2023-01-17T02:03:22.728Z,2.10
2023-01-17T02:06:31.113Z,1.48
2023-01-17T02:09:35.419Z,0.97
2023-01-17T02:12:38.390Z,2.08
2023-01-17T02:15:52.091Z,3.42
2023-01-17T02:19:05.633Z,1.38
2023-01-17T02:22:26.060Z,1.98
2023-01-17T02:25:52.739Z,1.77
2023-01-17T02:29:15.781Z,1.95
2023-01-17T02:32:28.234Z,1.00
2023-01-17T02:35:38.701Z,2.10
2023-01-17T02:38:50.261Z,1.80
2023-01-17T02:42:01.815Z,0.70
2023-01-17T02:45:05.660Z,1.52
2023-01-17T02:48:14.863Z,1.38
2023-01-17T02:55:05.171Z,1.95
2023-01-17T02:58:21.679Z,2.20
2023-01-17T03:01:32.946Z,2.08
2023-01-17T03:04:44.685Z,1.02
2023-01-17T03:07:49.119Z,1.00
2023-01-17T03:10:53.300Z,2.67
2023-01-17T03:13:58.714Z,2.92
2023-01-17T03:17:00.913Z,1.95
2023-01-17T03:20:06.035Z,1.38
2023-01-17T03:23:08.718Z,3.40
2023-01-17T03:26:12.772Z,1.48
2023-01-17T03:29:15.879Z,1.88
2023-01-17T03:32:20.046Z,1.38
2023-01-17T03:35:23.354Z,1.55
2023-01-17T03:38:27.720Z,1.08
2023-01-17T03:41:29.787Z,2.53
2023-01-17T03:44:33.675Z,0.47
2023-01-17T03:47:36.547Z,0.82
2023-01-17T03:50:40.198Z,1.55
2023-01-17T03:53:42.618Z,1.35
2023-01-17T03:56:44.882Z,1.60
2023-01-17T03:59:49.255Z,1.90
2023-01-17T04:02:52.423Z,1.98
2023-01-17T04:05:55.830Z,2.20
2023-01-17T04:08:57.819Z,3.05
2023-01-17T04:12:01.803Z,1.63
2023-01-17T04:15:04.567Z,1.65
2023-01-17T04:18:08.167Z,1.90
2023-01-17T04:21:14.314Z,1.55
2023-01-17T04:24:17.857Z,2.38
2023-01-17T04:27:22.128Z,2.70
2023-01-17T04:30:26.515Z,2.95
2023-01-17T04:33:29.111Z,0.90
2023-01-17T04:36:35.322Z,0.93
2023-01-17T04:39:37.297Z,1.17
2023-01-17T04:42:40.374Z,6.68
2023-01-17T04:45:42.224Z,3.10
2023-01-17T04:48:46.618Z,2.83
2023-01-17T04:51:50.036Z,2.45
2023-01-17T04:54:52.007Z,2.40
2023-01-17T04:57:56.957Z,0.60
2023-01-17T05:01:04.110Z,1.15
2023-01-17T05:04:09.367Z,1.40
2023-01-17T05:07:13.635Z,2.38
2023-01-17T05:10:16.049Z,3.33
2023-01-17T05:13:19.279Z,0.63
2023-01-17T05:16:23.123Z,1.48
2023-01-17T05:19:28.950Z,1.42
2023-01-17T05:22:32.619Z,4.57
2023-01-17T05:25:35.435Z,1.60
2023-01-17T05:28:39.796Z,1.02
2023-01-17T05:31:41.820Z,4.03
2023-01-17T05:34:44.168Z,4.25
2023-01-17T05:37:49.663Z,1.33
2023-01-17T05:40:51.502Z,3.30
2023-01-17T05:43:54.606Z,7.22
2023-01-17T05:46:57.079Z,1.73
2023-01-17T05:50:02.288Z,1.73
2023-01-17T05:53:07.816Z,4.07
2023-01-17T05:56:11.986Z,3.00
2023-01-17T05:59:20.541Z,2.10
2023-01-17T06:02:29.860Z,8.27
2023-01-17T06:05:31.921Z,5.03
2023-01-17T06:08:44.438Z,3.60
2023-01-17T06:11:46.836Z,1.55
2023-01-17T06:14:49.167Z,2.58
2023-01-17T06:17:51.140Z,2.65
2023-01-17T06:20:54.041Z,4.10
2023-01-17T06:23:57.716Z,2.75
2023-01-17T06:26:59.984Z,2.78
2023-01-17T06:30:04.035Z,3.40
2023-01-17T06:33:07.348Z,2.28
2023-01-17T06:36:11.069Z,3.15
2023-01-17T06:39:15.203Z,2.85
2023-01-17T06:42:17.103Z,7.05
2023-01-17T06:45:20.579Z,3.20
2023-01-17T06:48:22.349Z,5.20
2023-01-17T06:51:24.239Z,4.40
2023-01-17T06:54:27.636Z,4.05
2023-01-17T06:57:29.847Z,5.55
2023-01-17T07:00:32.359Z,1.45
2023-01-17T07:03:34.994Z,2.10
2023-01-17T07:06:39.847Z,3.10
2023-01-17T07:09:45.145Z,2.45
2023-01-17T07:12:47.141Z,3.38
2023-01-17T07:15:50.201Z,3.67
2023-01-17T07:18:52.034Z,4.95
2023-01-17T07:21:58.872Z,3.15
2023-01-17T07:25:03.303Z,6.90
2023-01-17T07:28:06.082Z,3.95
2023-01-17T07:31:08.514Z,2.60
2023-01-17T07:34:10.986Z,3.53
2023-01-17T07:37:15.084Z,5.80
2023-01-17T07:40:20.160Z,5.03
2023-01-17T07:43:24.268Z,5.63
2023-01-17T07:46:28.443Z,8.45
2023-01-17T07:49:30.639Z,3.45
2023-01-17T07:52:33.467Z,2.85
2023-01-17T07:55:39.093Z,2.42
2023-01-17T07:58:43.416Z,4.75
2023-01-17T08:01:45.436Z,2.42
2023-01-17T08:04:48.324Z,2.38
2023-01-17T08:07:53.053Z,4.70
2023-01-17T08:10:58.455Z,7.63
2023-01-17T08:14:00.608Z,5.47
2023-01-17T08:17:06.327Z,3.50
2023-01-17T08:20:11.245Z,4.35
2023-01-17T08:23:15.442Z,5.38
2023-01-17T08:26:20.321Z,10.23
2023-01-17T08:29:22.326Z,6.13
2023-01-17T08:32:24.132Z,6.10
2023-01-17T08:35:27.022Z,2.67
2023-01-17T08:38:28.827Z,3.67
2023-01-17T08:41:34.884Z,5.00
2023-01-17T08:44:36.966Z,8.07
2023-01-17T08:47:41.490Z,3.35
2023-01-17T08:50:44.005Z,4.30
2023-01-17T08:53:45.866Z,2.35
2023-01-17T08:56:52.336Z,2.95
2023-01-17T08:59:57.379Z,2.75
2023-01-17T09:06:25.984Z,2.85
2023-01-17T09:09:29.085Z,1.52
2023-01-17T09:12:33.832Z,6.40
2023-01-17T09:15:35.627Z,28.95
2023-01-17T09:18:37.779Z,13.32
2023-01-17T09:21:39.900Z,2.25
2023-01-17T09:24:42.734Z,2.30
2023-01-17T09:27:47.184Z,3.08
2023-01-17T09:30:50.406Z,3.40
2023-01-17T09:33:54.579Z,3.08
2023-01-17T09:36:58.735Z,3.13
2023-01-17T09:40:00.512Z,1.63
2023-01-17T09:43:12.646Z,3.20
2023-01-17T09:46:20.930Z,2.85
2023-01-17T09:49:36.698Z,3.17
2023-01-17T09:52:38.715Z,0.98
2023-01-17T09:55:48.624Z,1.70
2023-01-17T09:59:18.751Z,0.45
2023-01-17T10:02:39.771Z,1.10
2023-01-17T10:05:57.061Z,1.63
2023-01-17T10:09:10.427Z,2.55
2023-01-17T10:12:21.310Z,3.65
2023-01-17T10:15:48.507Z,1.08
2023-01-17T10:19:10.591Z,3.15
2023-01-17T10:22:32.764Z,2.95
2023-01-17T10:25:48.931Z,1.65
2023-01-17T10:28:52.633Z,2.38
2023-01-17T10:32:01.100Z,1.13
2023-01-17T10:35:17.379Z,1.10
2023-01-17T10:38:24.543Z,2.47
2023-01-17T10:41:29.673Z,2.80
2023-01-17T10:44:48.769Z,1.10
2023-01-17T10:48:00.095Z,2.97
2023-01-17T10:51:14.884Z,5.53
2023-01-17T10:54:30.109Z,2.63
2023-01-17T10:57:41.024Z,14.80
2023-01-17T11:00:51.389Z,1.02
2023-01-17T11:03:54.635Z,3.30
2023-01-17T11:07:12.360Z,2.70
2023-01-17T11:10:34.342Z,2.20
2023-01-17T11:13:39.749Z,1.35
2023-01-17T11:16:43.068Z,1.88
2023-01-17T11:19:53.915Z,1.58
2023-01-17T11:23:08.498Z,3.10
2023-01-17T11:26:20.799Z,3.50
2023-01-17T11:29:36.948Z,2.03
2023-01-17T11:32:39.166Z,1.42
2023-01-17T11:35:45.216Z,2.13
2023-01-17T11:38:56.770Z,1.55
2023-01-17T11:41:59.253Z,1.25
2023-01-17T11:45:24.237Z,2.95
2023-01-17T11:48:33.426Z,2.17
2023-01-17T11:54:50.379Z,1.50
2023-01-17T11:57:52.489Z,2.67
2023-01-17T12:01:09.161Z,1.23
2023-01-17T12:04:24.714Z,3.30
2023-01-17T12:07:36.180Z,0.90
2023-01-17T12:10:48.413Z,1.00
2023-01-17T12:14:06.395Z,2.47
2023-01-17T12:17:28.410Z,2.95
2023-01-17T12:20:44.418Z,1.98
2023-01-17T12:24:01.370Z,1.13
2023-01-17T12:27:15.086Z,4.55
2023-01-17T12:30:38.152Z,3.40
2023-01-17T12:33:49.898Z,1.10
2023-01-17T12:36:57.952Z,4.15
2023-01-17T12:40:18.171Z,2.45
2023-01-17T12:43:27.164Z,1.98
2023-01-17T12:46:36.145Z,2.22
2023-01-17T12:49:45.358Z,3.25
2023-01-17T12:52:54.252Z,3.50
2023-01-17T12:56:03.181Z,3.05
2023-01-17T12:59:15.392Z,1.77
2023-01-17T13:02:30.364Z,2.75
2023-01-17T13:05:36.772Z,3.55
2023-01-17T13:08:43.729Z,1.98
2023-01-17T13:11:53.628Z,1.67
2023-01-17T13:15:00.461Z,3.03
2023-01-17T13:18:11.039Z,2.05
2023-01-17T13:21:29.683Z,2.30
2023-01-17T13:24:42.506Z,2.50
2023-01-17T13:28:12.494Z,1.63
2023-01-17T13:31:45.276Z,2.45
2023-01-17T13:35:12.665Z,2.10
2023-01-17T13:38:44.203Z,3.28
2023-01-17T13:41:50.477Z,1.38
2023-01-17T13:44:54.290Z,3.17
2023-01-17T13:48:25.831Z,3.05
2023-01-17T13:52:01.979Z,8.45
2023-01-17T13:55:05.983Z,2.83
2023-01-17T13:58:27.668Z,7.30
2023-01-17T14:01:57.041Z,2.55
2023-01-17T14:05:11.821Z,6.22
2023-01-17T14:08:16.827Z,2.78
2023-01-17T14:11:19.527Z,2.38
2023-01-17T14:14:46.587Z,5.93
2023-01-17T14:17:56.225Z,6.60
2023-01-17T14:21:21.658Z,4.55
2023-01-17T14:24:23.691Z,7.35
2023-01-17T14:27:27.647Z,4.75
2023-01-17T14:30:35.890Z,5.70
2023-01-17T14:33:41.976Z,4.57
2023-01-17T14:36:46.863Z,5.25
2023-01-17T14:39:50.857Z,4.80
2023-01-17T14:42:59.124Z,3.30
2023-01-17T14:46:04.369Z,2.83
2023-01-17T14:49:22.240Z,5.15
2023-01-17T14:52:24.027Z,5.38
2023-01-17T14:55:28.093Z,5.60
2023-01-17T14:58:32.046Z,4.22
2023-01-17T15:01:34.448Z,3.08
2023-01-17T15:04:38.263Z,2.47
2023-01-17T15:07:45.638Z,7.38
2023-01-17T15:10:51.592Z,3.22
2023-01-17T15:13:56.612Z,5.18
2023-01-17T15:17:09.751Z,5.13
2023-01-17T15:20:21.089Z,3.20
2023-01-17T15:23:26.377Z,3.22
2023-01-17T15:26:33.248Z,2.13
2023-01-17T15:29:35.845Z,5.15
2023-01-17T15:32:38.830Z,7.50
2023-01-17T15:35:45.245Z,2.83
2023-01-17T15:38:52.376Z,3.25
2023-01-17T15:41:57.292Z,3.50
2023-01-17T15:45:02.771Z,4.50
2023-01-17T15:48:33.566Z,3.58
2023-01-17T15:51:50.188Z,1.95
2023-01-17T15:54:54.422Z,4.63
2023-01-17T15:57:57.174Z,2.70
2023-01-17T16:01:01.682Z,3.60
2023-01-17T16:04:32.872Z,3.43
2023-01-17T16:07:39.122Z,5.07
2023-01-17T16:10:41.787Z,3.15
2023-01-17T16:13:44.560Z,3.28
2023-01-17T16:16:52.357Z,2.03
2023-01-17T16:19:55.955Z,3.22
2023-01-17T16:23:00.693Z,11.70
2023-01-17T16:26:02.757Z,13.70
2023-01-17T16:29:06.872Z,10.05
2023-01-17T16:32:10.987Z,16.70
2023-01-17T16:35:17.195Z,8.70
2023-01-17T16:38:24.071Z,18.38
2023-01-17T16:41:26.344Z,31.27
2023-01-17T16:44:29.419Z,11.95
2023-01-17T16:47:31.541Z,13.68
2023-01-17T16:50:34.477Z,15.10
2023-01-17T16:53:41.046Z,10.75
2023-01-17T16:56:43.133Z,37.15
2023-01-17T16:59:50.807Z,33.95
2023-01-17T17:02:54.273Z,7.93
2023-01-17T17:06:01.000Z,26.52
2023-01-17T17:09:04.879Z,14.70
2023-01-17T17:12:07.413Z,22.50
2023-01-17T17:15:10.983Z,10.07
2023-01-17T17:18:14.653Z,9.25
2023-01-17T17:21:16.605Z,28.45
2023-01-17T17:24:23.383Z,14.73
2023-01-17T17:27:25.503Z,5.53
2023-01-17T17:30:27.832Z,7.25
2023-01-17T17:33:32.156Z,4.25
2023-01-17T17:36:38.581Z,2.28
2023-01-17T17:39:44.604Z,3.75
2023-01-17T17:42:46.851Z,4.60
2023-01-17T17:45:49.593Z,5.63
2023-01-17T17:48:51.617Z,3.92
2023-01-17T17:51:57.132Z,2.35
2023-01-17T17:55:02.706Z,4.22
2023-01-17T17:58:06.011Z,7.18
2023-01-17T18:01:08.530Z,4.28
2023-01-17T18:04:10.664Z,4.43
2023-01-17T18:07:12.996Z,6.03
2023-01-17T18:10:22.948Z,7.28
2023-01-17T18:13:25.138Z,4.45
2023-01-17T18:16:30.938Z,4.80
2023-01-17T18:19:34.627Z,3.05
2023-01-17T18:22:37.922Z,5.15
2023-01-17T18:25:43.179Z,5.72
2023-01-17T18:28:47.131Z,4.85
2023-01-17T18:31:54.336Z,5.30
2023-01-17T18:34:56.965Z,4.07
2023-01-17T18:38:02.908Z,3.78
2023-01-17T18:41:08.925Z,3.15
2023-01-17T18:44:13.283Z,4.55
2023-01-17T18:47:15.925Z,3.40
2023-01-17T18:50:19.187Z,5.10
2023-01-17T18:53:22.447Z,4.97
2023-01-17T18:56:30.791Z,5.72
2023-01-17T18:59:34.082Z,3.37
2023-01-17T19:02:38.379Z,4.07
2023-01-17T19:05:42.520Z,3.75
2023-01-17T19:08:47.358Z,4.05
2023-01-17T19:11:54.090Z,4.03
2023-01-17T19:14:57.921Z,4.78
2023-01-17T19:18:00.842Z,7.38
2023-01-17T19:21:07.204Z,4.20
2023-01-17T19:24:12.020Z,5.82
2023-01-17T19:27:18.774Z,4.45
2023-01-17T19:30:21.863Z,4.18
2023-01-17T19:33:25.056Z,3.55
2023-01-17T19:36:31.559Z,4.20
2023-01-17T19:39:34.630Z,3.50
2023-01-17T19:42:41.607Z,4.70
2023-01-17T19:45:45.715Z,9.57
2023-01-17T19:48:49.020Z,5.90
2023-01-17T19:51:51.895Z,5.38
2023-01-17T19:54:56.999Z,4.38
2023-01-17T19:58:04.581Z,6.25
2023-01-17T20:01:09.640Z,10.85
2023-01-17T20:04:15.776Z,6.75
2023-01-17T20:07:20.274Z,6.55
2023-01-17T20:10:23.525Z,7.13
2023-01-17T20:13:28.432Z,7.25
2023-01-17T20:16:32.089Z,9.85
2023-01-17T20:19:34.634Z,10.60
2023-01-17T20:22:37.416Z,11.13
2023-01-17T20:25:39.858Z,9.23
2023-01-17T20:28:45.564Z,11.30
2023-01-17T20:31:51.782Z,11.50
2023-01-17T20:34:53.963Z,6.78
2023-01-17T20:37:56.851Z,9.25
2023-01-17T20:40:59.759Z,7.35
2023-01-17T20:44:06.329Z,6.32
2023-01-17T20:47:08.832Z,8.80
2023-01-17T20:50:11.850Z,9.10
2023-01-17T20:53:17.495Z,8.68
2023-01-17T20:56:22.079Z,6.50
2023-01-17T20:59:27.780Z,4.78
2023-01-17T21:02:29.804Z,5.10
2023-01-17T21:05:32.187Z,9.20
2023-01-17T21:08:36.184Z,10.43
2023-01-17T21:11:39.510Z,7.05
2023-01-17T21:14:45.319Z,9.10
2023-01-17T21:17:48.073Z,9.38
2023-01-17T21:20:50.478Z,5.78
2023-01-17T21:23:54.378Z,6.45
2023-01-17T21:26:57.171Z,4.95
2023-01-17T21:30:00.819Z,6.10
2023-01-17T21:33:05.187Z,4.95
2023-01-17T21:36:07.885Z,3.58
2023-01-17T21:39:12.815Z,13.27
2023-01-17T21:42:15.433Z,13.00
2023-01-17T21:45:19.357Z,14.40
2023-01-17T21:48:24.486Z,11.93
2023-01-17T21:51:26.730Z,11.13
2023-01-17T21:54:29.687Z,10.02
2023-01-17T21:57:33.975Z,6.10
2023-01-17T22:00:37.666Z,6.03
2023-01-17T22:03:39.728Z,7.20
2023-01-17T22:06:41.528Z,4.03
2023-01-17T22:09:45.838Z,8.80
2023-01-17T22:12:47.638Z,6.00
2023-01-17T22:15:59.571Z,3.13
2023-01-17T22:19:02.406Z,3.65
2023-01-17T22:22:06.687Z,2.38
2023-01-17T22:25:08.913Z,2.10
2023-01-17T22:28:10.932Z,2.25
2023-01-17T22:31:16.158Z,5.05
2023-01-17T22:34:18.163Z,3.22
2023-01-17T22:37:20.975Z,3.25
2023-01-17T22:40:22.813Z,3.35
2023-01-17T22:43:24.767Z,4.18
2023-01-17T22:46:32.172Z,2.83
2023-01-17T22:49:34.338Z,2.60
2023-01-17T22:52:38.720Z,4.38
2023-01-17T22:55:40.717Z,5.03
2023-01-17T22:58:43.256Z,3.17
2023-01-17T23:01:46.443Z,2.65
2023-01-17T23:04:48.711Z,4.07
2023-01-17T23:07:50.741Z,3.20
2023-01-17T23:10:52.770Z,5.22
2023-01-17T23:13:54.822Z,2.70
2023-01-17T23:17:03.647Z,3.55
2023-01-17T23:20:07.964Z,4.13
2023-01-17T23:23:09.984Z,4.43
2023-01-17T23:26:12.025Z,2.83
2023-01-17T23:29:14.018Z,5.28
2023-01-17T23:32:25.358Z,3.65
2023-01-17T23:35:29.084Z,4.60
2023-01-17T23:38:31.355Z,2.40
2023-01-17T23:41:33.666Z,3.67
2023-01-17T23:44:35.674Z,2.72
2023-01-17T23:47:38.862Z,3.80
2023-01-17T23:50:42.631Z,3.38
2023-01-17T23:53:45.220Z,2.60
2023-01-17T23:56:47.316Z,2.15
2023-01-17T23:59:49.099Z,3.58
